Main page
METAR-TAF:

METAR-TAF

Airports :

Ekofisk, Norway

Oil platform

latitude: 56-33N, longitude: 003-15E, elevation: 3 m

Current weather observation

The report was made 28 minutes ago, at 08:20 UTC
Wind 26 kt from the West
Temperature 11°C
Humidity 82%
Pressure 1013 hPa
Visibility 10 km or more
Few clouds at a height of 1500 ft

METAR: ENEK 230820Z 28026KT 9999 FEW015 11/08 Q1013 W10/S3

Time: 10:48 (08:48 UTC)

Forecast

The report was made 48 minutes ago, at 08:00 UTC
Forecast valid from 23 at 09 UTC to 23 at 18 UTC
Wind 25 kt from the West/Northwest
Visibility 10 km or more
Few clouds at a height of 1200 ft
Scattered clouds at a height of 3000 ft

TAF: ENEK 230800Z 2309/2318 29025KT 9999 FEW012 SCT030

Weather observations and forecasts of more than 4000 airports (METAR and TAF reports).

The available stations are represented by yellow and red dots on the map.

Hover mouse over dot to see the name of the station.

Then click to see weather observations and forecasts.

To change the map : click on the green buttons with a black cross to zoom in, on the green button with a dash to zoom out, or on the green arrows for adjacent maps.


METAR-TAF: